Tropical Cyclones
[Index]
Main Index Home Page Stock Weather Photos Extreme Storms Discussion Storm News and Storm Chasing Reports Tropical Cyclones / Hurricanes / Typhoons Weather Data and Links Wild Fires / Bushfires Weather Observation Techniques Weather Picture Catalogue Tornado Pictures and Reports Stock Video Footage and DVDs for sale
Season 2002-2003 Tropical Cyclone CRYSTAL Track Map
Season 2002-2003 Summaries: [BoM-AU] [JTWC-AU] [JTWC-SIO] [JTWC-SPAC] [JTWC-SH]
<<- Previous TC | JTWC 2002-2003 Season | Next TC ->>

click for intensity scale information  Lat/long Grid: Show Hide

 Date Labels: Show Hide

Joint Typhoon Warning Centre Cyclone Data

Name: CRYSTAL

22 Dec 2002 06:00 UTC to 29 Dec 2002 00:00 UTC

    date/time    lat    long     hPa   cat  kts
2002-12-22 06    7.9    69.1    1002         25          
2002-12-22 12    8.4    68.9    1002         25          
2002-12-22 18    9.0    68.6    1002         25          
2002-12-23 00    9.6    67.9    1002         25          
2002-12-23 06   10.3    67.2    1002         25          
2002-12-23 12   11.0    66.5     997         35          
2002-12-23 18   11.7    65.8     994    1    40          
2002-12-24 00   12.3    65.0     991    1    45          
2002-12-24 06   12.8    64.1     987    1    50          
2002-12-24 12   13.5    63.4     984    2    55          
2002-12-24 18   14.1    62.7     976    2    65          
2002-12-25 00   14.5    62.2     976    2    65          
2002-12-25 06   15.0    61.7     972    2    70          
2002-12-25 12   15.6    61.2     967    3    75          
2002-12-25 18   16.3    60.7     972    2    70          
2002-12-26 00   16.9    60.2     972    2    70          
2002-12-26 06   17.7    59.9     972    2    70          
2002-12-26 12   18.4    59.7     963    3    80          
2002-12-26 18   19.1    59.5     954    3    90          
2002-12-27 00   19.9    59.5     958    3    90          
2002-12-27 06   20.7    59.6     954    3    90          
2002-12-27 12   21.5    59.9     954    3    90          
2002-12-27 18   22.3    60.3     958    3    85          
2002-12-28 00   23.2    60.6     963    3    80          
2002-12-28 06   24.1    60.7     967    3    75          
2002-12-28 12   25.0    61.1     972    2    70          
2002-12-28 18   25.8    62.0     984    2    55          
2002-12-29 00   26.6    62.9     994    1    40          
Winds are 1-min average.

Tropical cyclone tracks developed by Michael Bath using data from the Joint Typhoon Warning Centre Best Tracks and Google Maps.


[Australian Severe Weather index] [Copyright Notice] [Email Contacts] [Search This Site] [Privacy Policy]
Document: tropical_cyclone_crystal.htm Updated: 28 June 2017